Time;durP1;ratioP1;P1;durP2;ratioP2;P2;SDS_P1;SDS_P2;PMS_P1;PMS_P2;Temp;Humidity;BMP_temperature;BMP_pressure;BME280_temperature;BME280_humidity;BME280_pressure;Samples;Min_cycle;Max_cycle;Signal;HPM_P1;HPM_P2
2022/03/07 00:00:07;;;;;;;;;70.00;53.33;;;;;5.56;44.76;101683.91;5055905;28;45135;-52
2022/03/07 00:02:33;;;;;;;;;65.67;52.00;;;;;5.53;45.23;101676.91;5054960;28;45497;-52
2022/03/07 00:04:58;;;;;;;;;73.00;54.67;;;;;5.39;45.31;101661.94;5054239;28;45471;-50
2022/03/07 00:07:24;;;;;;;;;63.75;49.00;;;;;5.21;45.72;101639.28;5054462;28;45382;-50
2022/03/07 00:09:49;;;;;;;;;67.00;52.25;;;;;5.43;44.94;101678.81;5055510;28;45475;-52
2022/03/07 00:12:15;;;;;;;;;64.50;50.75;;;;;5.39;45.00;101672.00;5054477;28;45557;-50
2022/03/07 00:14:40;;;;;;;;;62.25;50.25;;;;;5.27;45.72;101664.03;5055274;28;45619;-51
2022/03/07 00:17:06;;;;;;;;;63.75;51.00;;;;;5.13;45.28;101643.63;5054186;28;45424;-49
2022/03/07 00:19:31;;;;;;;;;55.50;47.00;;;;;5.18;45.58;101651.34;5037646;28;45503;-48
2022/03/07 00:21:57;;;;;;;;;67.75;53.25;;;;;5.35;45.83;101667.84;5054508;28;45599;-50
2022/03/07 00:24:22;;;;;;;;;60.75;48.25;;;;;5.01;45.28;101610.34;5054100;28;45412;-53
2022/03/07 00:26:48;;;;;;;;;60.50;47.50;;;;;5.20;45.80;101648.47;5055291;28;45543;-51
2022/03/07 00:29:14;;;;;;;;;62.50;48.25;;;;;5.44;45.80;101677.81;5053708;28;45415;-54
2022/03/07 00:31:39;;;;;;;;;73.75;52.00;;;;;5.43;45.93;101687.88;5055372;28;45812;-50
2022/03/07 00:34:05;;;;;;;;;62.50;49.75;;;;;5.29;45.56;101681.06;5053706;28;47885;-54
2022/03/07 00:36:30;;;;;;;;;66.75;49.75;;;;;5.19;45.58;101679.44;5055234;28;45377;-52
2022/03/07 00:38:56;;;;;;;;;60.00;47.50;;;;;5.18;46.13;101688.59;5053819;28;45366;-50
2022/03/07 00:41:21;;;;;;;;;55.25;43.75;;;;;5.13;45.61;101678.19;5053624;28;45537;-53
2022/03/07 00:43:47;;;;;;;;;66.00;50.75;;;;;5.23;46.30;101694.44;5036929;28;45537;-54
2022/03/07 00:46:12;;;;;;;;;69.50;51.25;;;;;4.96;46.40;101648.06;5053800;28;45813;-52
2022/03/07 00:48:38;;;;;;;;;58.75;46.25;;;;;5.14;46.80;101691.63;5055356;28;45339;-50
2022/03/07 00:51:03;;;;;;;;;54.75;43.75;;;;;4.88;46.80;101651.56;5055398;28;45768;-55
2022/03/07 00:53:28;;;;;;;;;59.75;49.25;;;;;5.12;46.68;101680.03;5053761;28;45678;-51
2022/03/07 00:55:54;;;;;;;;;59.00;49.75;;;;;5.21;46.17;101691.00;5054643;28;45358;-49
2022/03/07 00:58:20;;;;;;;;;61.75;44.25;;;;;4.95;46.80;101646.34;5055411;28;45428;-51
2022/03/07 01:00:46;;;;;;;;;66.50;49.00;;;;;5.22;46.08;101692.75;5055309;28;45374;-50
2022/03/07 01:03:13;;;;;;;;;65.25;53.75;;;;;5.17;46.62;101687.75;5053836;28;46202;-52
2022/03/07 01:05:39;;;;;;;;;62.75;47.25;;;;;5.17;46.61;101676.84;5053729;28;45435;-51
2022/03/07 01:08:05;;;;;;;;;62.50;47.50;;;;;5.20;45.94;101679.28;5070796;28;45670;-50
2022/03/07 01:10:30;;;;;;;;;53.25;45.50;;;;;5.22;46.39;101685.41;5053680;28;45410;-49
2022/03/07 01:12:56;;;;;;;;;56.25;43.50;;;;;5.20;47.01;101681.13;5054668;28;45361;-53
2022/03/07 01:15:21;;;;;;;;;60.75;45.25;;;;;5.25;46.53;101684.25;5054949;28;45327;-51
2022/03/07 01:17:47;;;;;;;;;70.50;53.50;;;;;5.13;46.34;101672.75;5054086;28;45365;-51
2022/03/07 01:20:13;;;;;;;;;59.50;46.50;;;;;5.00;46.76;101682.13;5054084;28;45375;-51
2022/03/07 01:22:38;;;;;;;;;60.25;47.00;;;;;4.96;46.62;101677.97;5053420;28;45709;-51
2022/03/07 01:25:05;;;;;;;;;61.25;48.25;;;;;5.00;46.83;101673.97;5053466;28;45394;-52
2022/03/07 01:27:30;;;;;;;;;57.75;45.25;;;;;5.03;46.91;101680.97;5054730;28;45422;-52
2022/03/07 01:29:56;;;;;;;;;63.75;50.50;;;;;4.64;46.75;101624.03;5055392;28;45441;-52
2022/03/07 01:32:22;;;;;;;;;52.00;44.50;;;;;4.94;46.60;101660.97;5054407;28;45455;-53
2022/03/07 01:34:47;;;;;;;;;59.25;47.00;;;;;4.78;47.47;101652.59;5057476;28;45363;-52
2022/03/07 01:37:13;;;;;;;;;56.00;44.25;;;;;4.86;47.28;101671.75;5057233;28;45412;-51
2022/03/07 01:39:38;;;;;;;;;60.75;48.50;;;;;4.69;47.37;101676.13;5090959;27;45437;-54
2022/03/07 01:42:04;;;;;;;;;57.00;46.00;;;;;4.70;47.37;101675.97;5056434;28;45405;-50
2022/03/07 01:44:29;;;;;;;;;51.50;45.00;;;;;4.64;47.40;101659.41;5058285;28;45420;-51
2022/03/07 01:46:55;;;;;;;;;59.25;46.00;;;;;4.85;47.32;101670.00;5057947;28;45522;-50
2022/03/07 01:49:21;;;;;;;;;56.00;44.00;;;;;4.70;46.89;101634.31;5057343;28;45314;-50
2022/03/07 01:51:47;;;;;;;;;59.75;47.50;;;;;4.75;47.07;101662.78;5057711;28;45932;-50
2022/03/07 01:54:14;;;;;;;;;57.75;43.50;;;;;4.55;47.93;101642.13;5058102;28;45406;-54
2022/03/07 01:56:45;;;;;;;;;62.75;47.50;;;;;4.73;47.26;101666.66;5057813;28;45400;-53
2022/03/07 01:59:11;;;;;;;;;62.25;47.50;;;;;4.63;47.50;101652.25;5058480;28;45343;-51
2022/03/07 02:01:37;;;;;;;;;45.00;41.75;;;;;4.48;47.71;101622.81;5073242;28;47272;-52
2022/03/07 02:04:03;;;;;;;;;64.50;44.75;;;;;4.73;47.82;101661.22;5057949;28;45396;-54
2022/03/07 02:06:28;;;;;;;;;49.00;44.25;;;;;4.63;47.39;101636.78;5057910;28;45395;-51
2022/03/07 02:08:54;;;;;;;;;68.50;51.50;;;;;4.75;47.63;101654.59;5056911;28;45365;-51
2022/03/07 02:11:19;;;;;;;;;58.00;47.50;;;;;4.59;47.58;101649.81;5039671;28;47341;-50
2022/03/07 02:13:45;;;;;;;;;48.50;43.50;;;;;4.61;47.63;101660.56;5056317;28;45448;-49
2022/03/07 02:16:12;;;;;;;;;51.25;44.00;;;;;4.42;47.78;101643.31;5056392;28;45436;-52
2022/03/07 02:18:37;;;;;;;;;51.25;45.50;;;;;4.49;48.33;101649.03;5057705;28;45480;-51
2022/03/07 02:21:13;;;;;;;;;49.00;40.75;;;;;4.62;47.64;101648.66;5057554;28;46255;-51
2022/03/07 02:23:39;;;;;;;;;48.25;37.75;;;;;4.71;47.58;101639.59;5057669;28;45437;-50
2022/03/07 02:26:25;;;;;;;;;54.75;44.00;;;;;4.78;47.01;101634.41;5056357;28;45463;-49
2022/03/07 02:28:50;;;;;;;;;59.75;42.75;;;;;4.75;47.34;101638.28;5057032;28;45408;-53
2022/03/07 02:31:17;;;;;;;;;52.75;42.75;;;;;4.52;47.54;101607.91;5056063;28;45327;-49
2022/03/07 02:33:42;;;;;;;;;53.75;41.00;;;;;4.53;47.07;101630.53;5057189;28;45337;-50
2022/03/07 02:36:08;;;;;;;;;49.75;42.25;;;;;4.47;47.72;101616.53;5057444;28;45236;-51
2022/03/07 02:38:34;;;;;;;;;50.50;43.00;;;;;4.51;47.86;101624.38;5073314;28;45592;-51
2022/03/07 02:41:00;;;;;;;;;51.25;42.50;;;;;4.31;47.98;101611.75;5057276;28;46777;-51
2022/03/07 02:43:25;;;;;;;;;53.50;44.25;;;;;4.40;47.70;101615.44;5057041;28;45445;-52
2022/03/07 02:45:51;;;;;;;;;53.75;44.75;;;;;4.46;47.66;101612.09;5056672;28;45423;-48
2022/03/07 02:48:17;;;;;;;;;61.50;46.50;;;;;4.40;48.14;101620.00;5057162;28;45435;-53
2022/03/07 02:50:42;;;;;;;;;52.00;45.00;;;;;4.30;48.21;101623.63;5057306;28;45424;-51
2022/03/07 02:53:08;;;;;;;;;58.25;44.50;;;;;4.14;48.74;101607.06;5056951;28;45392;-51
2022/03/07 02:55:33;;;;;;;;;52.75;44.50;;;;;4.09;48.53;101576.75;5038927;28;45425;-49
2022/03/07 02:57:59;;;;;;;;;54.25;41.75;;;;;4.33;48.21;101609.72;5057133;28;45544;-51
2022/03/07 03:00:25;;;;;;;;;43.25;40.75;;;;;4.35;48.60;101620.44;5055506;28;46389;-54
2022/03/07 03:02:50;;;;;;;;;43.50;41.50;;;;;4.16;48.17;101569.75;5049744;28;45352;-53
2022/03/07 03:05:16;;;;;;;;;49.00;40.75;;;;;4.46;47.80;101605.81;5074555;28;45462;-53
2022/03/07 03:07:41;;;;;;;;;45.50;41.00;;;;;4.42;47.77;101610.69;5072613;28;45586;-53
2022/03/07 03:10:07;;;;;;;;;53.75;44.00;;;;;4.34;48.09;101611.44;5075417;28;46550;-55
2022/03/07 03:12:33;;;;;;;;;51.00;42.00;;;;;4.01;48.19;101582.97;5054897;28;45315;-52
2022/03/07 03:14:59;;;;;;;;;50.25;42.00;;;;;4.27;47.99;101604.03;5086539;27;45349;-49
2022/03/07 03:17:26;;;;;;;;;46.00;41.50;;;;;4.30;47.91;101603.72;5056402;28;45334;-51
2022/03/07 03:19:52;;;;;;;;;50.00;39.50;;;;;4.26;48.16;101596.91;5089378;27;47713;-48
2022/03/07 03:22:19;;;;;;;;;50.00;41.75;;;;;4.18;48.33;101594.91;5055976;28;45377;-50
2022/03/07 03:24:45;;;;;;;;;48.75;41.25;;;;;4.20;48.63;101607.34;5055368;28;45382;-53
2022/03/07 03:27:11;;;;;;;;;53.50;38.50;;;;;4.09;48.32;101582.19;5055511;28;45361;-51
2022/03/07 03:29:37;;;;;;;;;47.00;38.75;;;;;3.86;48.57;101566.28;5055932;28;45792;-49
2022/03/07 03:32:02;;;;;;;;;40.50;36.50;;;;;4.04;48.56;101590.81;5056182;28;45310;-52
2022/03/07 03:34:28;;;;;;;;;47.75;40.25;;;;;4.14;48.22;101593.47;5056024;28;45311;-49
2022/03/07 03:36:53;;;;;;;;;40.25;37.00;;;;;3.98;48.22;101602.25;5056675;28;45531;-55
2022/03/07 03:39:19;;;;;;;;;41.00;36.00;;;;;3.98;48.52;101599.53;5054947;28;45532;-48
2022/03/07 03:41:44;;;;;;;;;54.00;40.50;;;;;4.00;48.60;101601.09;5055690;28;45341;-52
2022/03/07 03:44:10;;;;;;;;;49.25;40.00;;;;;3.97;48.57;101590.56;5088409;27;45365;-51
2022/03/07 03:46:37;;;;;;;;;48.75;43.25;;;;;3.98;48.63;101596.81;5056014;28;45614;-52
2022/03/07 03:49:03;;;;;;;;;50.25;43.50;;;;;4.02;48.37;101607.28;5055772;28;46367;-54
2022/03/07 03:51:28;;;;;;;;;47.00;41.00;;;;;4.04;48.35;101609.81;5054808;28;45445;-49
2022/03/07 03:53:54;;;;;;;;;57.75;45.00;;;;;4.10;48.52;101609.22;5055699;28;45446;-50
2022/03/07 03:56:19;;;;;;;;;43.00;39.25;;;;;4.11;48.68;101615.53;5055819;28;45322;-53
2022/03/07 03:58:45;;;;;;;;;39.25;38.25;;;;;4.05;48.48;101611.53;5055250;27;46425;-52
2022/03/07 04:01:11;;;;;;;;;45.50;41.25;;;;;3.97;48.97;101612.28;5055073;28;45400;-52
2022/03/07 04:03:36;;;;;;;;;42.50;39.75;;;;;3.84;48.89;101614.47;5054471;28;45338;-54
2022/03/07 04:06:04;;;;;;;;;50.50;41.25;;;;;3.20;48.97;101530.81;5056291;28;45382;-53
2022/03/07 04:08:32;;;;;;;;;52.00;42.75;;;;;3.69;49.19;101614.03;5054392;28;47206;-51
2022/03/07 04:10:58;;;;;;;;;55.25;43.75;;;;;3.60;49.68;101607.63;5055448;28;45274;-50
2022/03/07 04:13:23;;;;;;;;;51.25;42.00;;;;;3.52;49.82;101597.47;5054724;28;45542;-51
2022/03/07 04:15:49;;;;;;;;;48.25;42.75;;;;;3.49;49.91;101576.94;5054899;28;45297;-50
2022/03/07 04:18:15;;;;;;;;;53.50;43.25;;;;;3.77;49.17;101616.88;5055739;28;47408;-49
2022/03/07 04:20:40;;;;;;;;;46.25;40.50;;;;;3.52;49.09;101567.59;5054830;28;45351;-50
2022/03/07 04:23:06;;;;;;;;;50.50;42.00;;;;;3.77;49.26;101606.03;5055743;28;45283;-50
2022/03/07 04:25:33;;;;;;;;;50.50;41.75;;;;;3.72;49.40;101611.03;5056189;28;45612;-52
2022/03/07 04:28:00;;;;;;;;;46.50;39.50;;;;;3.74;49.62;101604.44;5055713;28;46165;-51
2022/03/07 04:30:25;;;;;;;;;51.25;42.00;;;;;3.74;49.42;101617.19;5055417;28;45471;-52
2022/03/07 04:32:51;;;;;;;;;60.50;43.25;;;;;3.61;49.63;101609.31;5055705;28;45411;-50
2022/03/07 04:35:16;;;;;;;;;52.75;43.50;;;;;3.53;49.65;101612.78;5055661;28;45572;-52
2022/03/07 04:37:42;;;;;;;;;48.75;42.00;;;;;3.53;49.58;101602.75;5055324;28;45548;-49
2022/03/07 04:40:14;;;;;;;;;42.50;39.75;;;;;3.33;50.16;101606.50;5055251;28;45531;-51
2022/03/07 04:42:41;;;;;;;;;46.25;40.00;;;;;3.22;49.98;101589.38;5055439;28;45440;-54
2022/03/07 04:45:07;;;;;;;;;46.75;42.25;;;;;3.39;50.13;101616.78;5055488;28;45381;-54
2022/03/07 04:47:32;;;;;;;;;36.75;33.50;;;;;2.89;50.98;101556.22;5054931;28;47114;-51
2022/03/07 04:49:58;;;;;;;;;58.50;42.25;;;;;3.38;50.35;101617.78;5053657;28;45341;-51
2022/03/07 04:52:23;;;;;;;;;40.75;32.50;;;;;3.37;50.28;101625.06;5055423;28;45385;-51
2022/03/07 04:54:49;;;;;;;;;44.75;35.50;;;;;3.24;50.41;101608.19;5024749;28;45596;-51
2022/03/07 04:57:16;;;;;;;;;47.50;38.75;;;;;3.44;50.35;101619.94;5054772;28;45353;-53
2022/03/07 04:59:45;;;;;;;;;38.75;35.50;;;;;3.47;50.06;101614.19;5053793;28;45793;-56
2022/03/07 05:02:11;;;;;;;;;43.75;36.50;;;;;3.52;50.22;101621.91;5053938;28;45556;-52
2022/03/07 05:04:37;;;;;;;;;44.00;37.00;;;;;3.53;50.02;101620.94;5053489;28;45438;-55
2022/03/07 05:07:03;;;;;;;;;43.00;38.50;;;;;3.42;50.04;101631.94;5053721;28;46636;-55
2022/03/07 05:09:28;;;;;;;;;47.50;41.25;;;;;3.34;50.01;101619.06;5058193;28;45476;-51
2022/03/07 05:11:54;;;;;;;;;44.00;38.75;;;;;3.28;50.10;101623.22;5061407;28;45303;-51
2022/03/07 05:14:19;;;;;;;;;41.50;33.00;;;;;3.19;50.34;101608.63;5062092;28;45242;-52
2022/03/07 05:16:45;;;;;;;;;48.50;41.00;;;;;3.36;50.34;101615.22;5061504;28;46405;-52
2022/03/07 05:19:10;;;;;;;;;45.00;38.50;;;;;3.01;50.73;101573.22;5061495;28;45328;-52
2022/03/07 05:21:36;;;;;;;;;42.75;35.00;;;;;3.28;50.63;101615.06;5061900;28;45215;-53
2022/03/07 05:24:01;;;;;;;;;46.50;39.25;;;;;3.37;50.06;101618.78;5061900;28;45536;-52
2022/03/07 05:26:27;;;;;;;;;47.25;41.50;;;;;3.35;50.17;101613.50;5061529;28;46144;-55
2022/03/07 05:28:52;;;;;;;;;42.25;35.25;;;;;3.37;50.02;101625.06;5060284;28;45356;-54
2022/03/07 05:31:19;;;;;;;;;44.75;41.00;;;;;3.40;50.19;101615.78;5061872;28;45529;-54
2022/03/07 05:33:44;;;;;;;;;54.25;39.00;;;;;3.43;50.30;101628.19;5060620;28;45927;-55
2022/03/07 05:36:10;;;;;;;;;56.00;42.25;;;;;3.32;49.99;101619.22;5061494;28;45661;-54
2022/03/07 05:38:35;;;;;;;;;44.50;42.00;;;;;2.98;50.45;101587.03;5061327;28;45429;-51
2022/03/07 05:41:01;;;;;;;;;44.75;39.75;;;;;3.13;50.65;101595.63;5061602;28;45460;-56
2022/03/07 05:43:26;;;;;;;;;41.25;40.50;;;;;3.43;50.37;101620.94;5061521;28;45613;-53
2022/03/07 05:45:52;;;;;;;;;40.00;37.00;;;;;2.98;49.77;101568.06;5061341;28;45636;-53
2022/03/07 05:48:17;;;;;;;;;51.50;42.25;;;;;3.31;50.46;101622.91;5059884;28;45484;-51
2022/03/07 05:50:43;;;;;;;;;49.50;39.75;;;;;3.37;50.52;101626.94;5061685;28;45448;-55
2022/03/07 05:53:08;;;;;;;;;44.50;37.00;;;;;3.37;50.02;101630.47;5061409;28;45356;-55
2022/03/07 05:55:34;;;;;;;;;45.50;33.50;;;;;3.45;50.02;101624.34;5060880;28;46434;-53
2022/03/07 05:58:00;;;;;;;;;46.00;39.50;;;;;3.32;49.83;101624.66;5035846;28;47622;-54
2022/03/07 06:00:26;;;;;;;;;45.75;37.25;;;;;2.92;50.23;101569.50;5054957;28;45451;-53
2022/03/07 06:02:51;;;;;;;;;44.00;39.25;;;;;3.31;50.15;101628.34;5061413;28;45227;-51
2022/03/07 06:05:17;;;;;;;;;42.50;37.00;;;;;3.36;49.97;101636.91;5060790;27;45867;-52
2022/03/07 06:07:43;;;;;;;;;44.00;34.75;;;;;3.43;49.88;101644.50;5061141;28;45348;-50
2022/03/07 06:10:09;;;;;;;;;50.50;42.50;;;;;3.37;49.98;101635.91;5059781;28;45390;-53
2022/03/07 06:12:35;;;;;;;;;54.00;41.75;;;;;3.30;49.84;101634.78;5061045;28;45651;-50
2022/03/07 06:15:03;;;;;;;;;43.75;40.00;;;;;3.19;50.18;101626.75;5060779;28;46107;-52
2022/03/07 06:17:30;;;;;;;;;49.50;39.50;;;;;3.22;50.10;101637.34;5060971;28;45368;-52
2022/03/07 06:19:56;;;;;;;;;49.00;40.75;;;;;3.28;50.25;101630.47;5058977;28;45448;-53
2022/03/07 06:22:22;;;;;;;;;44.25;40.50;;;;;3.24;50.04;101641.63;5057999;28;45282;-54
2022/03/07 06:24:47;;;;;;;;;43.50;38.50;;;;;2.95;49.76;101596.31;5057255;28;45319;-51
2022/03/07 06:27:13;;;;;;;;;60.25;43.00;;;;;2.74;50.16;101553.06;5057561;28;45441;-53
2022/03/07 06:29:38;;;;;;;;;48.00;38.50;;;;;3.10;50.02;101642.03;5057654;28;45256;-50
2022/03/07 06:32:04;;;;;;;;;46.25;39.75;;;;;2.77;50.05;101607.00;5057800;28;45277;-49
2022/03/07 06:34:31;;;;;;;;;49.75;42.25;;;;;3.01;50.50;101635.59;5057292;28;45318;-52
2022/03/07 06:36:57;;;;;;;;;49.75;42.25;;;;;3.14;49.92;101637.19;5057346;28;45349;-51
2022/03/07 06:39:25;;;;;;;;;61.75;45.50;;;;;3.17;49.93;101642.31;5057443;28;45495;-53
2022/03/07 06:41:51;;;;;;;;;47.50;42.50;;;;;3.18;49.87;101644.03;5057584;28;45371;-54
2022/03/07 06:44:17;;;;;;;;;45.75;39.75;;;;;3.04;49.91;101640.72;5057175;28;46621;-55
2022/03/07 06:46:42;;;;;;;;;53.25;45.00;;;;;3.06;50.24;101648.75;5057171;28;45437;-54
2022/03/07 06:49:08;;;;;;;;;47.50;37.75;;;;;3.11;50.15;101644.59;5057298;28;45255;-54
2022/03/07 06:51:33;;;;;;;;;51.50;41.75;;;;;3.11;49.79;101641.88;5057014;28;45389;-50
2022/03/07 06:53:59;;;;;;;;;46.00;37.75;;;;;2.51;50.19;101541.59;5056603;28;46651;-51
2022/03/07 06:56:24;;;;;;;;;41.75;36.00;;;;;3.15;49.66;101628.91;5056986;28;45315;-51
2022/03/07 06:58:50;;;;;;;;;48.00;41.25;;;;;3.37;49.82;101652.19;5056046;28;45383;-51
2022/03/07 07:01:15;;;;;;;;;53.75;43.00;;;;;3.27;49.10;101626.06;5055927;28;45315;-53
2022/03/07 07:03:41;;;;;;;;;43.50;38.50;;;;;3.21;49.36;101646.47;5039101;28;45837;-51
2022/03/07 07:06:06;;;;;;;;;38.75;35.25;;;;;3.24;49.33;101643.47;5056958;28;45373;-53
2022/03/07 07:08:32;;;;;;;;;50.50;41.50;;;;;3.34;49.14;101647.06;5055615;28;45323;-54
2022/03/07 07:10:58;;;;;;;;;51.50;42.50;;;;;3.25;49.40;101627.06;5055742;28;45539;-52
2022/03/07 07:13:23;;;;;;;;;60.00;42.75;;;;;3.38;49.81;101648.47;5057214;28;46168;-55
2022/03/07 07:15:55;;;;;;;;;31.00;30.25;;;;;3.37;49.01;101644.06;5056769;28;45767;-50
2022/03/07 07:18:21;;;;;;;;;51.00;44.25;;;;;3.37;49.11;101644.06;5057060;28;45243;-51
2022/03/07 07:20:47;;;;;;;;;43.50;38.00;;;;;3.32;49.28;101630.06;5055661;28;45401;-53
2022/03/07 07:23:12;;;;;;;;;53.50;41.50;;;;;3.36;49.42;101645.06;5055212;28;46900;-53
2022/03/07 07:25:38;;;;;;;;;44.75;38.25;;;;;3.30;49.38;101648.34;5056840;28;45400;-55
2022/03/07 07:28:04;;;;;;;;;44.00;39.00;;;;;3.29;49.61;101643.91;5056878;28;45334;-52
2022/03/07 07:30:29;;;;;;;;;43.50;34.50;;;;;3.43;49.43;101639.94;5057010;28;45500;-50
2022/03/07 07:32:55;;;;;;;;;43.75;38.75;;;;;3.44;48.90;101646.19;5056454;28;46140;-51
2022/03/07 07:35:20;;;;;;;;;53.25;39.50;;;;;3.35;49.36;101653.34;5056535;28;45350;-55
2022/03/07 07:37:46;;;;;;;;;43.25;40.50;;;;;3.32;49.09;101643.66;5089343;27;45335;-54
2022/03/07 07:40:11;;;;;;;;;47.00;41.25;;;;;3.04;49.00;101629.03;5056674;28;45528;-54
2022/03/07 07:42:37;;;;;;;;;34.75;34.75;;;;;3.20;49.53;101651.03;5038424;28;47116;-54
2022/03/07 07:45:03;;;;;;;;;45.50;38.00;;;;;3.16;49.11;101633.34;5056504;28;45438;-52
2022/03/07 07:47:29;;;;;;;;;52.75;45.50;;;;;3.34;49.23;101649.78;5055398;28;45428;-49
2022/03/07 07:49:54;;;;;;;;;50.75;42.00;;;;;3.32;48.71;101648.19;5056763;28;45388;-52
2022/03/07 07:52:20;;;;;;;;;52.75;45.00;;;;;3.27;49.12;101651.34;5056407;28;46643;-53
2022/03/07 07:54:45;;;;;;;;;48.25;38.50;;;;;3.38;49.06;101636.78;5055890;28;45477;-49
2022/03/07 07:57:12;;;;;;;;;48.75;41.75;;;;;3.39;48.94;101623.06;5056837;28;45302;-55
2022/03/07 07:59:38;;;;;;;;;53.00;42.00;;;;;3.58;48.66;101653.06;5056556;28;45484;-54
2022/03/07 08:02:04;;;;;;;;;55.25;43.50;;;;;3.63;48.70;101651.63;5054691;28;45510;-56
2022/03/07 08:04:29;;;;;;;;;44.50;42.00;;;;;3.63;48.29;101646.19;5056368;28;45404;-53
2022/03/07 08:06:55;;;;;;;;;43.50;41.25;;;;;3.66;48.03;101640.50;5055923;28;45313;-50
2022/03/07 08:09:20;;;;;;;;;58.50;42.00;;;;;3.75;47.95;101648.78;5038641;28;45331;-54
2022/03/07 08:11:46;;;;;;;;;45.50;40.25;;;;;3.58;47.21;101637.63;5088380;27;47566;-53
2022/03/07 08:14:11;;;;;;;;;43.00;37.00;;;;;2.81;48.46;101513.53;5056101;28;45294;-52
2022/03/07 08:16:37;;;;;;;;;48.75;38.50;;;;;3.50;48.02;101611.22;5056035;28;45244;-51
2022/03/07 08:19:03;;;;;;;;;49.00;42.50;;;;;3.70;46.97;101634.75;5056170;28;46202;-53
2022/03/07 08:21:28;;;;;;;;;46.50;40.25;;;;;3.72;47.16;101636.34;5055768;28;45367;-52
2022/03/07 08:23:54;;;;;;;;;52.50;42.00;;;;;3.73;46.63;101635.31;5055498;28;45397;-54
2022/03/07 08:26:20;;;;;;;;;43.75;41.50;;;;;3.60;47.03;101635.63;5054748;28;45414;-56
2022/03/07 08:28:46;;;;;;;;;53.00;44.00;;;;;3.57;46.72;101641.34;5056461;28;45308;-54
2022/03/07 08:31:11;;;;;;;;;49.00;39.75;;;;;3.61;46.75;101634.63;5055545;28;45960;-52
2022/03/07 08:33:39;;;;;;;;;44.75;39.75;;;;;3.67;46.77;101641.34;5055710;28;45440;-50
2022/03/07 08:36:05;;;;;;;;;46.25;39.75;;;;;3.58;46.81;101637.63;5055584;28;45365;-49
2022/03/07 08:38:31;;;;;;;;;42.25;39.50;;;;;3.62;46.65;101633.63;5055919;28;45487;-54
2022/03/07 08:40:57;;;;;;;;;42.00;38.00;;;;;3.64;46.35;101636.22;5055716;28;47051;-55
2022/03/07 08:43:22;;;;;;;;;51.00;40.50;;;;;3.76;47.19;101629.63;5087310;27;45345;-58
2022/03/07 08:45:48;;;;;;;;;36.50;35.00;;;;;3.49;46.27;101557.06;5055799;28;45421;-58
2022/03/07 08:48:14;;;;;;;;;48.25;42.50;;;;;3.98;45.70;101626.69;5017986;28;45531;-54
2022/03/07 08:50:39;;;;;;;;;47.00;42.00;;;;;3.93;45.56;101622.59;5012489;27;46152;-54
2022/03/07 08:53:05;;;;;;;;;42.25;40.50;;;;;3.94;46.08;101620.72;5068083;28;45353;-56
2022/03/07 08:55:30;;;;;;;;;41.00;38.25;;;;;4.02;46.08;101622.69;5053752;28;45409;-53
2022/03/07 08:57:56;;;;;;;;;44.00;38.50;;;;;3.95;46.21;101599.84;5055673;28;45231;-57
2022/03/07 09:00:21;;;;;;;;;42.00;36.50;;;;;4.17;45.67;101623.94;5055031;28;46274;-55
2022/03/07 09:02:47;;;;;;;;;44.25;41.25;;;;;4.16;44.89;101624.09;5055134;28;45421;-54
2022/03/07 09:05:12;;;;;;;;;42.50;36.75;;;;;3.96;45.52;101587.97;5054899;28;45499;-53
2022/03/07 09:07:38;;;;;;;;;48.50;39.00;;;;;4.16;45.42;101624.94;5053807;28;45691;-56
2022/03/07 09:10:04;;;;;;;;;48.50;39.75;;;;;4.23;45.44;101617.06;5005032;27;46842;-54
2022/03/07 09:12:29;;;;;;;;;43.00;39.00;;;;;4.32;45.83;101618.03;5027750;28;45905;-55
2022/03/07 09:14:59;;;;;;;;;45.25;38.25;;;;;3.80;45.00;101538.69;5047499;28;45467;-54
2022/03/07 09:17:25;;;;;;;;;46.00;37.25;;;;;4.10;45.26;101583.94;5048883;28;45460;-58
2022/03/07 09:19:51;;;;;;;;;40.75;36.00;;;;;4.29;45.55;101612.88;5046389;28;46202;-58
2022/03/07 09:22:17;;;;;;;;;45.50;39.75;;;;;4.41;44.60;101614.41;5048387;28;45479;-57
2022/03/07 09:24:43;;;;;;;;;51.00;36.75;;;;;4.42;44.74;101624.28;5048908;28;45526;-57
2022/03/07 09:27:08;;;;;;;;;44.75;39.00;;;;;4.55;44.29;101623.09;5049075;28;45570;-58
2022/03/07 09:29:34;;;;;;;;;50.00;43.00;;;;;4.59;44.46;101619.91;5041128;28;47558;-56
2022/03/07 09:32:00;;;;;;;;;37.75;35.50;;;;;4.35;44.58;101568.81;5045773;28;46896;-55
2022/03/07 09:34:25;;;;;;;;;50.25;41.75;;;;;4.64;43.57;101616.72;5030785;28;45589;-55
2022/03/07 09:36:51;;;;;;;;;43.00;35.50;;;;;4.74;43.96;101622.97;5049702;28;45431;-55
2022/03/07 09:39:16;;;;;;;;;38.75;36.00;;;;;4.59;42.53;101586.44;5046794;28;45572;-55
2022/03/07 09:41:45;;;;;;;;;46.00;35.25;;;;;4.79;43.60;101610.81;5049601;28;45535;-54
2022/03/07 09:44:10;;;;;;;;;38.50;38.50;;;;;4.91;42.37;101625.88;5047065;28;45540;-55
2022/03/07 09:46:36;;;;;;;;;32.50;32.00;;;;;4.99;43.75;101616.97;5065241;28;45758;-53
2022/03/07 09:49:02;;;;;;;;;46.00;41.50;;;;;5.01;42.91;101606.78;5049482;28;45741;-53
2022/03/07 09:51:28;;;;;;;;;41.00;37.00;;;;;4.88;42.17;101596.28;5034302;28;45990;-56
2022/03/07 09:53:53;;;;;;;;;51.50;40.75;;;;;5.00;42.42;101611.38;5032831;28;46067;-56
2022/03/07 09:56:19;;;;;;;;;42.25;35.00;;;;;5.10;42.46;101607.72;5050917;28;45448;-64
2022/03/07 09:58:45;;;;;;;;;44.50;40.75;;;;;5.12;42.57;101597.56;5051158;28;46529;-55
2022/03/07 10:01:13;;;;;;;;;39.40;35.60;;;;;5.18;41.73;101602.34;5034496;28;45447;-54
2022/03/07 10:03:39;;;;;;;;;44.00;38.75;;;;;5.28;41.78;101591.38;5031963;28;45827;-51
2022/03/07 10:06:18;;;;;;;;;45.50;39.25;;;;;5.06;41.27;101554.63;5068578;28;45630;-51
2022/03/07 10:08:57;;;;;;;;;40.50;36.50;;;;;5.24;41.11;101558.19;5030253;28;46235;-52
2022/03/07 10:11:22;;;;;;;;;42.60;36.00;;;;;5.30;41.65;101554.00;5007042;28;45474;-53
2022/03/07 10:13:52;;;;;;;;;47.00;35.75;;;;;5.53;41.12;101567.09;5053730;28;45351;-57
2022/03/07 10:16:20;;;;;;;;;47.75;40.00;;;;;5.77;39.61;101599.09;5052295;28;45596;-50
2022/03/07 10:18:50;;;;;;;;;50.50;41.00;;;;;5.86;40.00;101585.56;5049756;28;45680;-53
2022/03/07 10:21:23;;;;;;;;;37.80;33.20;;;;;6.02;39.69;101582.97;5065358;27;45462;-53
2022/03/07 10:23:56;;;;;;;;;36.60;34.60;;;;;6.05;38.75;101571.75;5053495;28;45440;-51
2022/03/07 10:26:22;;;;;;;;;39.00;30.75;;;;;6.28;39.06;101576.63;5053741;28;45835;-53
2022/03/07 10:28:54;;;;;;;;;38.25;34.00;;;;;6.05;38.86;101519.09;5068532;28;45896;-54
2022/03/07 10:31:20;;;;;;;;;33.80;32.20;;;;;6.57;39.32;101571.81;5052251;28;45980;-53
2022/03/07 10:33:46;;;;;;;;;39.25;35.00;;;;;6.68;38.47;101565.19;5051047;28;45441;-54
2022/03/07 10:36:12;;;;;;;;;39.25;33.50;;;;;6.63;38.43;101549.31;5045747;28;45453;-55
2022/03/07 10:38:37;;;;;;;;;44.25;35.25;;;;;6.82;36.93;101567.28;5051489;28;45491;-59
2022/03/07 10:41:04;;;;;;;;;41.50;34.00;;;;;6.82;36.80;101571.88;5051725;28;45318;-54
2022/03/07 10:43:29;;;;;;;;;37.40;34.40;;;;;6.86;37.91;101571.38;5053176;28;45713;-53
2022/03/07 10:45:57;;;;;;;;;34.75;32.00;;;;;6.97;37.35;101563.88;5052090;28;45337;-57
2022/03/07 10:48:25;;;;;;;;;37.00;35.50;;;;;6.85;35.36;101544.25;5068365;28;46950;-55
2022/03/07 10:50:52;;;;;;;;;44.80;37.00;;;;;6.92;36.39;101548.03;5052815;27;45546;-54
2022/03/07 10:53:18;;;;;;;;;39.60;35.40;;;;;6.88;35.61;101539.31;5027217;28;45466;-54
2022/03/07 10:55:57;;;;;;;;;43.50;36.50;;;;;7.08;35.43;101560.84;5032925;28;45391;-55
2022/03/07 10:58:23;;;;;;;;;35.80;32.80;;;;;7.20;35.86;101550.44;5045811;28;45680;-57
2022/03/07 11:00:56;;;;;;;;;36.50;33.75;;;;;7.08;36.31;101511.69;5085501;27;45356;-57
2022/03/07 11:03:29;;;;;;;;;42.00;35.80;;;;;7.46;36.24;101543.94;5052727;28;45429;-54
2022/03/07 11:05:55;;;;;;;;;40.20;36.80;;;;;7.30;35.42;101506.56;5052704;28;45712;-54
2022/03/07 11:08:21;;;;;;;;;34.20;33.60;;;;;7.53;35.39;101530.47;5052461;28;45762;-56
2022/03/07 11:10:48;;;;;;;;;41.00;37.00;;;;;7.67;34.80;101531.63;5029079;28;45518;-54